Time;durP1;ratioP1;P1;durP2;ratioP2;P2;SDS_P1;SDS_P2;PMS_P1;PMS_P2;Temp;Humidity;BMP_temperature;BMP_pressure;BME280_temperature;BME280_humidity;BME280_pressure;Samples;Min_cycle;Max_cycle;Signal;HPM_P1;HPM_P2
2022/05/03 00:00:18;;;;;;;3.78;2.47;;;20.60;59.20;;;;;;5012249;28;20196;-68
2022/05/03 00:03:08;;;;;;;2.42;2.20;;;20.60;59.10;;;;;;5027552;28;20184;-69
2022/05/03 00:06:11;;;;;;;2.70;2.50;;;20.60;59.10;;;;;;5011356;28;20253;-68
2022/05/03 00:08:49;;;;;;;2.75;2.55;;;20.60;59.20;;;;;;5027871;28;20220;-68
2022/05/03 00:11:30;;;;;;;2.70;2.50;;;20.60;59.10;;;;;;5027625;28;20262;-68
2022/05/03 00:14:17;;;;;;;2.78;2.58;;;20.60;59.10;;;;;;5012473;28;20173;-68
2022/05/03 00:16:45;;;;;;;2.58;2.22;;;20.60;59.10;;;;;;5012481;28;20169;-68
2022/05/03 00:19:12;;;;;;;2.70;2.50;;;20.60;59.10;;;;;;5027855;28;20196;-68
2022/05/03 00:21:38;;;;;;;2.55;2.35;;;20.60;59.10;;;;;;5011142;28;20187;-68
2022/05/03 00:24:06;;;;;;;2.33;2.00;;;20.60;59.10;;;;;;5027776;28;20184;-68
2022/05/03 00:26:33;;;;;;;2.45;2.25;;;20.60;59.10;;;;;;5027651;28;20188;-68
2022/05/03 00:29:00;;;;;;;2.97;2.67;;;20.60;59.10;;;;;;5028266;28;20212;-67
2022/05/03 00:31:29;;;;;;;2.78;2.10;;;20.60;59.10;;;;;;5031262;28;20204;-68
2022/05/03 00:33:57;;;;;;;2.58;2.38;;;20.60;59.10;;;;;;5031643;28;20211;-68
2022/05/03 00:36:24;;;;;;;2.40;2.20;;;20.60;59.10;;;;;;5014927;28;20196;-68
2022/05/03 00:38:50;;;;;;;2.33;2.13;;;20.60;59.10;;;;;;5014897;28;20191;-68
2022/05/03 00:41:41;;;;;;;2.22;2.13;;;20.60;59.00;;;;;;5015679;28;20212;-68
2022/05/03 00:47:10;;;;;;;2.50;2.25;;;20.60;59.00;;;;;;5015911;28;20327;-68
2022/05/03 00:50:07;;;;;;;2.47;2.28;;;20.60;59.00;;;;;;5031037;28;20215;-68
2022/05/03 00:52:52;;;;;;;3.00;2.80;;;20.60;59.00;;;;;;5014545;28;20183;-68
2022/05/03 00:56:09;;;;;;;2.40;2.20;;;20.50;59.00;;;;;;5031447;28;20271;-68
2022/05/03 00:59:03;;;;;;;2.90;2.30;;;20.60;59.00;;;;;;5006508;28;20219;-67
2022/05/03 01:01:51;;;;;;;2.08;1.98;;;20.60;59.00;;;;;;5031070;28;20632;-68
2022/05/03 01:04:56;;;;;;;2.47;2.28;;;20.60;59.00;;;;;;5030951;28;20172;-68
2022/05/03 01:07:28;;;;;;;2.67;2.42;;;20.60;59.00;;;;;;5013259;28;20195;-68
2022/05/03 01:10:06;;;;;;;3.03;2.58;;;20.60;59.00;;;;;;5015559;28;20222;-68
2022/05/03 01:12:57;;;;;;;2.40;2.30;;;20.50;58.90;;;;;;5030518;28;20176;-68
2022/05/03 01:15:29;;;;;;;2.20;2.10;;;20.60;58.90;;;;;;5014320;28;20175;-68
2022/05/03 01:18:14;;;;;;;2.10;2.00;;;20.60;58.90;;;;;;5014103;28;20237;-68
2022/05/03 01:21:08;;;;;;;2.67;2.42;;;20.60;58.90;;;;;;5015268;28;20203;-68
2022/05/03 01:24:10;;;;;;;2.88;2.58;;;20.60;58.90;;;;;;5015293;28;20253;-68
2022/05/03 01:27:02;;;;;;;2.70;2.50;;;20.50;58.80;;;;;;5030395;28;20187;-68
2022/05/03 01:29:34;;;;;;;2.95;2.10;;;20.50;58.80;;;;;;5030348;28;20307;-68
2022/05/03 01:32:09;;;;;;;2.25;2.05;;;20.50;58.80;;;;;;5030317;28;20172;-67
2022/05/03 01:34:36;;;;;;;2.13;2.00;;;20.50;58.80;;;;;;4997782;28;20171;-68
2022/05/03 01:37:48;;;;;;;2.25;2.15;;;20.60;58.90;;;;;;5030315;28;20180;-68
2022/05/03 01:40:31;;;;;;;2.58;2.38;;;20.50;58.80;;;;;;5029116;28;20618;-68
2022/05/03 01:43:49;;;;;;;2.50;2.30;;;20.50;58.70;;;;;;5014580;28;20223;-68
2022/05/03 01:46:24;;;;;;;2.20;2.10;;;20.50;58.70;;;;;;5006403;28;20206;-68
2022/05/03 01:52:29;;;;;;;2.80;2.60;;;20.50;58.70;;;;;;4998602;28;20683;-68
2022/05/03 01:55:19;;;;;;;2.17;2.08;;;20.50;58.80;;;;;;5015085;28;20173;-68
2022/05/03 01:58:32;;;;;;;2.30;2.10;;;20.50;58.70;;;;;;5029913;28;20578;-68
2022/05/03 02:01:17;;;;;;;2.70;2.50;;;20.50;58.70;;;;;;5001896;28;20266;-67
2022/05/03 02:03:53;;;;;;;2.78;2.58;;;20.50;58.70;;;;;;5030082;28;20180;-68
2022/05/03 02:06:39;;;;;;;2.65;2.45;;;20.50;58.70;;;;;;5029688;28;20202;-68
2022/05/03 02:09:06;;;;;;;2.15;2.05;;;20.50;58.70;;;;;;5013233;28;20211;-68
2022/05/03 02:12:05;;;;;;;2.50;2.17;;;20.50;58.70;;;;;;5012935;28;20195;-68
2022/05/03 02:14:59;;;;;;;2.00;1.90;;;20.50;58.70;;;;;;5014352;28;20173;-68
2022/05/03 02:17:50;;;;;;;2.50;2.35;;;20.50;58.70;;;;;;5029690;28;20190;-67
2022/05/03 02:21:10;;;;;;;2.75;2.30;;;20.50;58.60;;;;;;5008038;28;20211;-68
2022/05/03 02:24:05;;;;;;;2.47;2.28;;;20.50;58.70;;;;;;4979508;28;20720;-68
2022/05/03 02:26:47;;;;;;;2.80;2.60;;;20.50;58.70;;;;;;4993641;28;20177;-68
2022/05/03 02:29:30;;;;;;;2.55;2.35;;;20.50;58.60;;;;;;4993159;28;20209;-68
2022/05/03 02:32:05;;;;;;;2.60;2.40;;;20.50;58.60;;;;;;4994282;28;20255;-68
2022/05/03 02:34:33;;;;;;;2.42;2.20;;;20.50;58.60;;;;;;5009612;28;20177;-68
2022/05/03 02:37:11;;;;;;;2.30;2.10;;;20.50;58.60;;;;;;4993409;28;20243;-68
2022/05/03 02:39:52;;;;;;;1.95;1.85;;;20.50;58.60;;;;;;5009442;28;20217;-68
2022/05/03 02:42:20;;;;;;;2.05;1.95;;;20.50;58.60;;;;;;4992861;28;20181;-67
2022/05/03 02:44:48;;;;;;;2.47;2.30;;;20.50;58.50;;;;;;5009398;28;20188;-68
2022/05/03 02:47:44;;;;;;;2.13;2.00;;;20.50;58.60;;;;;;5009272;28;20264;-68
2022/05/03 02:50:30;;;;;;;2.40;2.30;;;20.50;58.50;;;;;;4992980;28;20216;-68
2022/05/03 02:53:08;;;;;;;2.53;2.33;;;20.40;58.40;;;;;;5008664;28;20192;-68
2022/05/03 02:55:42;;;;;;;2.47;2.38;;;20.40;58.40;;;;;;4993159;28;20215;-68
2022/05/03 02:58:23;;;;;;;2.05;1.92;;;20.50;58.50;;;;;;5009111;28;20179;-68
2022/05/03 03:04:41;;;;;;;2.42;2.33;;;20.50;58.50;;;;;;5009321;28;20228;-68
2022/05/03 03:07:12;;;;;;;2.40;2.22;;;20.50;58.50;;;;;;5008980;28;20177;-68
2022/05/03 03:09:41;;;;;;;2.35;2.15;;;20.40;58.40;;;;;;5008697;28;20221;-68
2022/05/03 03:12:32;;;;;;;2.45;2.25;;;20.40;58.30;;;;;;4992349;28;20186;-67
2022/05/03 03:15:07;;;;;;;2.30;2.10;;;20.40;58.40;;;;;;4993748;28;20184;-68
2022/05/03 03:17:44;;;;;;;2.47;2.28;;;20.40;58.40;;;;;;5009085;28;20251;-68
2022/05/03 03:20:14;;;;;;;2.28;2.13;;;20.50;58.40;;;;;;4993652;28;20211;-68
2022/05/03 03:22:44;;;;;;;2.50;2.25;;;20.50;58.40;;;;;;4991971;28;20228;-68
2022/05/03 03:25:21;;;;;;;2.75;2.55;;;20.40;58.30;;;;;;4992476;28;20200;-68
2022/05/03 03:27:51;;;;;;;2.47;2.28;;;20.40;58.40;;;;;;5008992;28;20177;-68
2022/05/03 03:30:18;;;;;;;2.85;2.53;;;20.40;58.30;;;;;;5008760;28;20297;-68
2022/05/03 03:32:56;;;;;;;2.10;2.00;;;20.40;58.30;;;;;;5008578;28;20306;-68
2022/05/03 03:35:21;;;;;;;2.40;2.20;;;20.40;58.30;;;;;;5008568;28;20172;-68
2022/05/03 03:37:52;;;;;;;2.47;2.28;;;20.40;58.30;;;;;;4993333;28;20191;-68
2022/05/03 03:40:20;;;;;;;1.95;1.85;;;20.40;58.30;;;;;;4975769;28;20259;-66
2022/05/03 03:42:47;;;;;;;2.42;2.20;;;20.40;58.40;;;;;;5008397;28;20176;-68
2022/05/03 03:45:16;;;;;;;2.47;2.38;;;20.40;58.30;;;;;;5008365;28;20224;-68
2022/05/03 03:47:44;;;;;;;2.40;2.17;;;20.40;58.30;;;;;;4993283;28;20177;-68
2022/05/03 03:50:11;;;;;;;2.17;2.08;;;20.40;58.30;;;;;;5008511;28;20279;-68
2022/05/03 03:52:47;;;;;;;2.60;2.40;;;20.40;58.90;;;;;;4991765;28;20204;-68
2022/05/03 03:55:14;;;;;;;3.10;2.80;;;20.40;58.30;;;;;;4993114;28;20167;-68
2022/05/03 03:57:41;;;;;;;2.60;2.40;;;20.40;58.30;;;;;;4991873;28;20185;-67
2022/05/03 04:00:14;;;;;;;2.47;2.38;;;20.40;58.30;;;;;;5008094;28;20205;-67
2022/05/03 04:02:45;;;;;;;3.00;2.70;;;20.40;58.30;;;;;;4992785;28;20195;-68
2022/05/03 04:05:22;;;;;;;2.60;2.40;;;20.40;58.30;;;;;;4992436;28;20219;-68
2022/05/03 04:07:51;;;;;;;2.60;2.40;;;20.40;58.30;;;;;;5008455;28;20215;-68
2022/05/03 04:10:18;;;;;;;2.30;2.20;;;20.40;58.30;;;;;;5040656;22;20715;-69
2022/05/03 04:12:44;;;;;;;2.15;2.00;;;20.40;58.20;;;;;;5030011;28;20269;-69
2022/05/03 04:15:10;;;;;;;1.90;1.80;;;20.40;58.20;;;;;;5030379;28;20266;-69
2022/05/03 04:17:36;;;;;;;2.85;2.30;;;20.40;58.20;;;;;;5031464;28;20175;-70
2022/05/03 04:20:03;;;;;;;2.67;2.47;;;20.40;58.30;;;;;;5026963;28;20210;-69
2022/05/03 04:22:32;;;;;;;2.65;2.10;;;20.40;58.30;;;;;;4994078;28;20187;-69
2022/05/03 04:25:00;;;;;;;2.25;2.00;;;20.40;58.30;;;;;;5011756;28;20190;-69
2022/05/03 04:27:27;;;;;;;1.98;1.80;;;20.40;58.30;;;;;;5010120;28;20659;-68
2022/05/03 04:29:54;;;;;;;2.10;1.95;;;20.40;58.30;;;;;;5011918;28;20208;-70
2022/05/03 04:32:20;;;;;;;3.15;2.20;;;20.40;58.40;;;;;;5011955;28;20188;-69
2022/05/03 04:34:46;;;;;;;3.03;2.10;;;20.40;58.60;;;;;;5027625;28;20202;-69
2022/05/03 04:37:13;;;;;;;2.53;2.33;;;20.40;58.60;;;;;;5027476;28;20184;-70
2022/05/03 04:39:39;;;;;;;2.92;2.67;;;20.40;58.70;;;;;;5027669;28;20219;-70
2022/05/03 04:42:06;;;;;;;3.85;3.50;;;20.40;58.70;;;;;;5027214;28;20188;-71
2022/05/03 04:44:32;;;;;;;7.90;3.53;;;20.40;58.80;;;;;;5027411;28;20295;-71
2022/05/03 04:46:58;;;;;;;6.68;2.90;;;20.40;59.00;;;;;;5011271;28;20267;-69
2022/05/03 04:49:23;;;;;;;9.82;4.10;;;20.40;59.00;;;;;;5010647;28;20204;-69
2022/05/03 04:51:49;;;;;;;5.60;3.38;;;20.40;59.20;;;;;;5027149;28;20208;-71
2022/05/03 04:54:15;;;;;;;8.07;4.03;;;20.40;59.30;;;;;;5010797;28;20184;-71
2022/05/03 04:56:49;;;;;;;6.20;2.92;;;20.40;59.40;;;;;;5027352;28;20180;-70
2022/05/03 04:59:15;;;;;;;6.90;2.75;;;20.40;59.50;;;;;;5012113;28;20194;-71
2022/05/03 05:01:41;;;;;;;5.60;3.10;;;20.40;59.40;;;;;;5027021;28;20208;-71
2022/05/03 05:04:07;;;;;;;6.25;2.40;;;20.40;59.30;;;;;;5027173;28;20188;-70
2022/05/03 05:06:32;;;;;;;7.57;2.40;;;20.40;59.40;;;;;;5011993;28;20256;-72
2022/05/03 05:08:58;;;;;;;8.63;2.65;;;20.40;59.90;;;;;;5010990;28;20219;-72
2022/05/03 05:11:24;;;;;;;5.03;2.53;;;20.40;59.40;;;;;;5008244;28;20721;-72
2022/05/03 05:13:50;;;;;;;4.57;2.90;;;20.40;59.30;;;;;;5006173;28;20205;-72
2022/05/03 05:16:16;;;;;;;4.97;2.40;;;20.40;59.20;;;;;;4993141;28;20188;-73
2022/05/03 05:18:41;;;;;;;6.75;2.65;;;20.40;59.10;;;;;;4997246;28;20668;-72
2022/05/03 05:21:07;;;;;;;5.00;2.63;;;20.40;59.00;;;;;;5010223;28;20201;-72
2022/05/03 05:23:33;;;;;;;3.13;2.25;;;20.40;59.00;;;;;;4993678;28;20219;-72
2022/05/03 05:25:58;;;;;;;2.70;2.45;;;20.40;58.90;;;;;;5010478;28;20196;-72
2022/05/03 05:28:24;;;;;;;5.93;2.95;;;20.40;58.90;;;;;;4993749;28;20177;-72
2022/05/03 05:30:54;;;;;;;9.43;2.78;;;20.40;58.80;;;;;;4993638;28;20216;-72
2022/05/03 05:33:22;;;;;;;3.17;2.30;;;20.40;58.80;;;;;;5009824;28;20192;-72
2022/05/03 05:35:49;;;;;;;2.90;2.63;;;20.40;58.70;;;;;;4993895;28;20540;-72
2022/05/03 05:38:17;;;;;;;3.42;2.58;;;20.40;58.70;;;;;;4994871;28;20251;-72
2022/05/03 05:40:46;;;;;;;4.30;2.85;;;20.50;58.70;;;;;;5010029;28;20236;-73
2022/05/03 05:43:13;;;;;;;6.63;3.17;;;20.50;58.70;;;;;;4993456;28;20189;-72
2022/05/03 05:45:39;;;;;;;8.02;2.92;;;20.50;58.70;;;;;;4993386;28;20199;-72
2022/05/03 05:48:06;;;;;;;3.83;2.72;;;20.50;58.70;;;;;;4993361;28;20193;-72
2022/05/03 05:50:32;;;;;;;3.03;2.72;;;20.50;58.70;;;;;;4994859;28;20267;-72
2022/05/03 05:55:42;;;;;;;4.60;2.53;;;20.50;58.60;;;;;;5009517;28;20324;-72
2022/05/03 05:58:09;;;;;;;3.25;2.10;;;20.50;58.60;;;;;;4994511;28;20264;-72
2022/05/03 06:00:35;;;;;;;3.03;2.72;;;20.50;58.60;;;;;;4993307;28;20205;-72
2022/05/03 06:03:01;;;;;;;3.42;2.40;;;20.50;58.60;;;;;;4992980;28;20707;-72
2022/05/03 06:05:28;;;;;;;3.63;2.20;;;20.50;58.50;;;;;;5009623;28;20213;-72
2022/05/03 06:07:54;;;;;;;2.72;2.30;;;20.50;58.50;;;;;;5009477;28;20212;-72
2022/05/03 06:10:20;;;;;;;4.00;2.40;;;20.50;58.50;;;;;;5008999;28;20225;-72
2022/05/03 06:12:47;;;;;;;2.83;2.50;;;20.50;58.50;;;;;;4993095;28;20191;-72
2022/05/03 06:15:13;;;;;;;3.90;2.38;;;20.50;58.50;;;;;;4993066;28;20196;-72
2022/05/03 06:17:40;;;;;;;2.85;2.58;;;20.50;58.50;;;;;;5009270;28;20239;-72
2022/05/03 06:20:08;;;;;;;5.57;2.72;;;20.50;58.50;;;;;;5008958;28;20209;-72
2022/05/03 06:22:34;;;;;;;4.28;2.85;;;20.50;58.50;;;;;;4993675;28;20189;-72
2022/05/03 06:25:00;;;;;;;3.03;2.65;;;20.60;58.60;;;;;;4992701;28;20196;-72
2022/05/03 06:27:25;;;;;;;3.58;3.08;;;20.50;58.50;;;;;;4992172;28;20181;-72
2022/05/03 06:29:51;;;;;;;3.08;2.78;;;20.60;58.60;;;;;;5009110;28;20227;-72
2022/05/03 06:32:17;;;;;;;3.35;2.58;;;20.50;58.40;;;;;;4992654;28;20181;-73
2022/05/03 06:34:43;;;;;;;3.08;2.78;;;20.60;58.50;;;;;;5008877;28;20187;-72
2022/05/03 06:37:09;;;;;;;3.15;2.45;;;20.60;58.40;;;;;;5008697;28;20228;-72
2022/05/03 06:39:38;;;;;;;4.47;2.80;;;20.60;58.40;;;;;;5008836;28;20193;-72
2022/05/03 06:42:05;;;;;;;2.80;2.60;;;20.60;59.10;;;;;;4992221;28;20195;-72
2022/05/03 06:44:31;;;;;;;4.00;2.47;;;20.60;58.40;;;;;;4992519;28;20764;-70
2022/05/03 06:46:57;;;;;;;2.58;2.38;;;20.60;58.40;;;;;;5008588;28;20193;-72
2022/05/03 06:49:23;;;;;;;3.05;2.28;;;20.70;58.50;;;;;;4992301;28;20209;-72
2022/05/03 06:51:49;;;;;;;3.40;2.42;;;20.70;58.50;;;;;;5008295;28;20694;-72
2022/05/03 06:54:15;;;;;;;3.05;2.60;;;20.70;58.40;;;;;;5008821;28;20193;-72
2022/05/03 06:56:41;;;;;;;3.25;2.95;;;20.70;58.40;;;;;;5008390;28;20269;-72
2022/05/03 06:59:07;;;;;;;2.47;2.25;;;20.70;58.40;;;;;;5009246;28;20192;-73
2022/05/03 07:01:33;;;;;;;2.67;2.47;;;20.70;58.40;;;;;;5012709;28;20196;-72
2022/05/03 07:03:59;;;;;;;2.50;2.30;;;20.70;58.40;;;;;;5027939;28;20710;-72
2022/05/03 07:06:25;;;;;;;2.72;2.53;;;20.80;58.40;;;;;;5028199;28;20291;-73
2022/05/03 07:08:51;;;;;;;2.83;2.58;;;20.70;58.40;;;;;;5028110;28;20223;-72
2022/05/03 07:11:17;;;;;;;2.30;2.10;;;20.70;58.40;;;;;;5026990;28;20231;-72
2022/05/03 07:13:43;;;;;;;2.70;2.30;;;20.80;58.40;;;;;;5010152;28;20189;-72
2022/05/03 07:16:09;;;;;;;3.58;2.50;;;20.80;58.40;;;;;;4991916;28;20188;-72
2022/05/03 07:24:04;;;;;;;3.42;2.42;;;20.80;58.40;;;;;;4992859;28;20196;-72
2022/05/03 07:26:30;;;;;;;2.50;2.30;;;20.80;58.40;;;;;;5008077;28;20244;-73
2022/05/03 07:28:56;;;;;;;2.60;2.40;;;20.80;58.30;;;;;;5007943;28;20300;-72
2022/05/03 07:31:22;;;;;;;3.20;2.20;;;20.90;58.40;;;;;;5007702;28;20267;-72
2022/05/03 07:33:51;;;;;;;2.35;2.15;;;20.90;58.40;;;;;;4992385;28;20177;-72
2022/05/03 07:36:20;;;;;;;4.18;2.33;;;20.90;58.40;;;;;;4991604;28;20235;-73
2022/05/03 07:38:46;;;;;;;3.47;2.30;;;20.90;58.40;;;;;;4991408;28;20235;-72
2022/05/03 07:41:13;;;;;;;3.03;2.65;;;20.90;58.40;;;;;;4991542;28;20216;-72
2022/05/03 07:43:39;;;;;;;3.17;2.40;;;20.90;58.40;;;;;;4991308;28;20672;-72
2022/05/03 07:46:05;;;;;;;2.30;2.10;;;20.90;58.40;;;;;;4991240;28;20242;-72
2022/05/03 07:48:31;;;;;;;3.25;2.65;;;20.90;58.40;;;;;;5007696;28;20276;-72
2022/05/03 07:50:57;;;;;;;2.83;2.50;;;20.90;58.60;;;;;;4991272;28;20213;-72
2022/05/03 07:53:23;;;;;;;2.65;2.45;;;21.00;58.60;;;;;;5007336;28;20319;-72
2022/05/03 07:55:49;;;;;;;2.75;2.55;;;21.00;58.60;;;;;;4991253;28;20659;-72
2022/05/03 07:58:19;;;;;;;3.15;2.35;;;21.00;58.70;;;;;;5007558;28;20199;-72
2022/05/03 08:00:45;;;;;;;2.53;2.08;;;21.00;58.80;;;;;;5007588;28;20217;-72
2022/05/03 08:03:13;;;;;;;2.28;2.08;;;21.10;59.00;;;;;;5007362;28;20216;-72
2022/05/03 08:05:39;;;;;;;2.45;2.20;;;21.00;59.00;;;;;;5007592;28;20219;-72
2022/05/03 08:08:05;;;;;;;2.75;2.20;;;21.10;59.00;;;;;;4991009;28;20268;-72
2022/05/03 08:10:31;;;;;;;3.33;2.60;;;21.00;59.00;;;;;;5007393;28;20221;-72
2022/05/03 08:12:57;;;;;;;3.08;2.17;;;21.10;59.20;;;;;;4991045;28;20299;-72
2022/05/03 08:15:23;;;;;;;2.58;2.38;;;21.10;59.20;;;;;;5007428;28;20240;-72
2022/05/03 08:17:49;;;;;;;2.40;2.20;;;21.10;59.20;;;;;;4990866;28;20195;-73
2022/05/03 08:20:16;;;;;;;2.03;1.92;;;21.10;59.30;;;;;;4991010;28;20240;-72
2022/05/03 08:22:43;;;;;;;2.28;2.08;;;21.10;59.30;;;;;;4990740;28;20244;-72
2022/05/03 08:25:10;;;;;;;2.65;2.35;;;21.10;59.20;;;;;;5007309;28;20196;-72
2022/05/03 08:27:38;;;;;;;2.85;1.98;;;21.10;59.30;;;;;;4991041;28;20195;-72
2022/05/03 08:30:05;;;;;;;3.03;2.35;;;21.10;59.20;;;;;;4990889;28;20216;-72
2022/05/03 08:32:31;;;;;;;2.53;2.30;;;21.10;59.30;;;;;;5007024;28;20192;-73
2022/05/03 08:34:57;;;;;;;2.65;2.20;;;21.10;59.30;;;;;;5007327;28;20189;-72
2022/05/03 08:42:52;;;;;;;2.47;1.92;;;21.20;59.20;;;;;;5011410;28;20195;-72
2022/05/03 08:45:21;;;;;;;2.38;2.10;;;21.20;59.30;;;;;;5016255;28;20192;-72
2022/05/03 08:47:48;;;;;;;2.13;2.03;;;21.20;59.40;;;;;;5024484;28;20199;-72
2022/05/03 08:50:22;;;;;;;2.53;2.03;;;21.20;59.40;;;;;;5028105;28;20366;-73
2022/05/03 08:52:59;;;;;;;2.45;2.25;;;21.20;59.50;;;;;;5013821;28;20188;-72
2022/05/03 08:55:25;;;;;;;3.05;2.30;;;21.10;59.40;;;;;;5030727;28;20286;-72
2022/05/03 08:57:51;;;;;;;2.60;2.40;;;21.20;59.50;;;;;;5030560;28;20245;-72
2022/05/03 09:00:19;;;;;;;2.42;2.22;;;21.10;59.50;;;;;;5030580;28;20208;-72
2022/05/03 09:02:48;;;;;;;2.70;2.50;;;21.10;59.60;;;;;;5013704;28;20655;-72
2022/05/03 09:05:15;;;;;;;3.25;2.60;;;21.20;60.30;;;;;;5029465;28;20192;-72
2022/05/03 09:07:59;;;;;;;3.00;2.42;;;21.10;59.60;;;;;;5010900;28;20181;-72
2022/05/03 09:10:32;;;;;;;2.33;2.20;;;21.10;59.60;;;;;;4994014;28;20291;-72
2022/05/03 09:13:22;;;;;;;2.55;2.22;;;21.10;59.70;;;;;;5010294;28;20181;-73
2022/05/03 09:16:08;;;;;;;2.17;2.00;;;21.10;59.70;;;;;;5010453;28;20191;-72
2022/05/03 09:18:34;;;;;;;2.33;2.13;;;21.10;59.70;;;;;;5010621;28;20196;-72
2022/05/03 09:23:48;;;;;;;2.15;1.95;;;21.10;59.70;;;;;;4995575;28;20169;-72
2022/05/03 09:26:31;;;;;;;2.50;2.17;;;21.10;59.70;;;;;;4994543;28;20228;-72
2022/05/03 09:29:08;;;;;;;3.15;2.20;;;21.20;59.70;;;;;;4994403;28;20219;-72
2022/05/03 09:31:47;;;;;;;2.28;2.13;;;21.20;59.60;;;;;;5010467;28;20267;-72
2022/05/03 09:34:27;;;;;;;2.80;2.60;;;21.20;59.60;;;;;;5010729;28;20257;-72
2022/05/03 09:36:58;;;;;;;3.22;2.92;;;21.10;59.60;;;;;;4994314;28;20641;-72
2022/05/03 09:39:38;;;;;;;2.92;2.58;;;21.10;59.70;;;;;;4978087;28;20645;-72
2022/05/03 09:42:18;;;;;;;3.78;2.47;;;21.10;59.80;;;;;;4994255;28;20255;-71
2022/05/03 09:44:50;;;;;;;3.20;2.90;;;21.20;60.20;;;;;;5010437;28;20188;-72
2022/05/03 09:47:17;;;;;;;3.00;2.60;;;21.10;60.50;;;;;;5010392;28;20193;-72
2022/05/03 09:49:43;;;;;;;3.00;2.80;;;21.10;60.50;;;;;;5010522;28;20208;-71
2022/05/03 09:52:30;;;;;;;4.72;2.90;;;21.10;60.70;;;;;;4977864;28;20242;-70
2022/05/03 09:55:09;;;;;;;3.67;2.38;;;21.10;60.90;;;;;;4993952;28;20240;-70
2022/05/03 09:57:42;;;;;;;3.20;2.90;;;21.20;61.30;;;;;;4993920;28;20195;-71
2022/05/03 10:00:12;;;;;;;3.25;2.38;;;21.20;61.50;;;;;;5007176;28;20208;-71
2022/05/03 10:02:43;;;;;;;4.18;2.60;;;21.20;61.80;;;;;;5012639;28;20191;-71
2022/05/03 10:05:11;;;;;;;4.22;2.50;;;21.20;62.00;;;;;;5014394;28;20184;-70
2022/05/03 10:07:40;;;;;;;3.33;2.30;;;21.20;61.80;;;;;;5029209;28;20176;-70
2022/05/03 10:10:08;;;;;;;4.07;2.65;;;21.20;61.60;;;;;;5026264;28;20215;-69
2022/05/03 10:12:36;;;;;;;4.78;2.88;;;21.20;61.60;;;;;;5012628;28;20230;-69
2022/05/03 10:15:03;;;;;;;3.28;2.30;;;21.20;61.60;;;;;;5012494;28;20184;-71
2022/05/03 10:20:40;;;;;;;3.10;2.80;;;21.20;62.20;;;;;;5013812;28;20219;-70
2022/05/03 10:23:28;;;;;;;2.67;2.47;;;21.20;61.40;;;;;;5044418;23;20281;-70
2022/05/03 10:26:05;;;;;;;2.88;2.58;;;21.20;61.30;;;;;;5038490;28;20205;-69
2022/05/03 10:29:08;;;;;;;3.15;2.60;;;21.20;61.40;;;;;;5037468;28;20188;-71
2022/05/03 10:31:54;;;;;;;3.03;2.50;;;21.20;61.30;;;;;;5011409;28;20184;-71
2022/05/03 10:34:39;;;;;;;2.95;2.55;;;21.20;61.00;;;;;;5011140;28;20195;-71
2022/05/03 10:37:13;;;;;;;2.67;2.30;;;21.20;60.90;;;;;;4996639;28;20231;-71
2022/05/03 10:40:00;;;;;;;2.78;2.58;;;21.20;61.00;;;;;;5011380;28;20255;-71
2022/05/03 10:42:31;;;;;;;3.38;2.47;;;21.20;60.90;;;;;;4995449;28;20286;-71
2022/05/03 10:45:05;;;;;;;6.18;2.80;;;21.20;60.80;;;;;;5029884;28;20191;-71
2022/05/03 10:47:53;;;;;;;2.95;2.45;;;21.20;60.80;;;;;;5012345;28;20172;-71
2022/05/03 10:50:30;;;;;;;3.40;2.45;;;21.20;60.90;;;;;;5018291;28;20311;-71
2022/05/03 10:52:58;;;;;;;2.80;2.60;;;21.20;60.90;;;;;;5012038;28;20200;-71
2022/05/03 10:55:33;;;;;;;2.35;2.10;;;21.20;60.90;;;;;;4995926;28;20188;-71
2022/05/03 10:58:20;;;;;;;3.67;2.20;;;21.20;60.80;;;;;;4999527;28;20282;-71
2022/05/03 11:01:10;;;;;;;4.72;2.38;;;21.20;61.10;;;;;;5036617;28;20172;-71
2022/05/03 11:03:36;;;;;;;3.22;2.47;;;21.20;61.20;;;;;;5010143;28;20200;-71
2022/05/03 11:06:22;;;;;;;2.53;2.33;;;21.20;61.30;;;;;;5012286;28;20186;-71
2022/05/03 11:11:39;;;;;;;4.00;2.25;;;21.20;61.30;;;;;;5012398;28;20199;-72
2022/05/03 11:16:43;;;;;;;2.30;2.10;;;21.10;61.20;;;;;;5003285;28;20188;-71
2022/05/03 11:19:12;;;;;;;2.75;1.98;;;21.10;61.30;;;;;;4978803;28;20189;-72
2022/05/03 11:21:39;;;;;;;3.28;2.50;;;21.10;61.40;;;;;;4975890;28;20192;-71
2022/05/03 11:24:15;;;;;;;2.40;2.20;;;21.10;61.30;;;;;;4992131;28;20566;-71
2022/05/03 11:26:41;;;;;;;2.65;2.20;;;21.10;61.40;;;;;;4993563;28;20175;-71
2022/05/03 11:29:07;;;;;;;5.28;2.60;;;21.20;61.60;;;;;;4992196;28;20200;-71
2022/05/03 11:31:33;;;;;;;6.80;2.80;;;21.10;61.50;;;;;;4992114;28;20184;-71
2022/05/03 11:33:59;;;;;;;3.55;2.30;;;21.10;61.80;;;;;;4992826;28;20196;-70
2022/05/03 11:36:27;;;;;;;6.50;2.63;;;21.10;61.70;;;;;;5021553;28;20184;-71
2022/05/03 11:38:55;;;;;;;5.30;2.53;;;21.10;61.60;;;;;;5011662;28;20180;-71
2022/05/03 11:41:27;;;;;;;3.53;2.55;;;21.10;61.60;;;;;;4995197;28;20226;-70
2022/05/03 11:43:53;;;;;;;4.10;2.45;;;21.10;61.70;;;;;;5012587;28;20217;-70
2022/05/03 11:46:22;;;;;;;4.28;2.30;;;21.10;61.50;;;;;;5011840;28;20628;-71
2022/05/03 11:48:54;;;;;;;3.15;2.50;;;21.10;61.50;;;;;;5011519;28;20655;-71
2022/05/03 11:57:11;;;;;;;4.43;2.33;;;21.00;61.40;;;;;;5028191;28;20184;-71
2022/05/03 11:59:41;;;;;;;5.13;2.10;;;21.00;61.50;;;;;;5011414;28;20202;-71
2022/05/03 12:02:31;;;;;;;4.82;2.30;;;21.00;61.50;;;;;;5011089;28;20269;-71
2022/05/03 12:05:11;;;;;;;2.53;2.08;;;21.00;61.60;;;;;;5011322;28;20189;-70
2022/05/03 12:07:54;;;;;;;4.38;2.35;;;21.10;61.70;;;;;;5011559;28;20176;-71
2022/05/03 12:10:27;;;;;;;4.82;2.50;;;21.10;61.60;;;;;;5011359;28;20239;-71
2022/05/03 12:13:16;;;;;;;6.40;2.58;;;21.00;61.60;;;;;;5010981;28;20204;-71
2022/05/03 12:15:57;;;;;;;3.95;2.38;;;21.00;61.50;;;;;;5011290;28;20282;-71
2022/05/03 12:18:34;;;;;;;3.20;2.17;;;21.10;61.70;;;;;;5011580;28;20180;-71
2022/05/03 12:21:03;;;;;;;2.92;2.60;;;21.00;61.60;;;;;;5011100;28;20266;-71
2022/05/03 12:23:38;;;;;;;3.38;2.50;;;21.00;61.60;;;;;;5010429;28;20314;-71
2022/05/03 12:26:21;;;;;;;3.50;2.60;;;21.00;61.60;;;;;;5013870;28;20172;-71
2022/05/03 12:28:50;;;;;;;4.20;2.35;;;21.00;61.70;;;;;;4998775;28;20188;-71
2022/05/03 12:31:18;;;;;;;3.40;2.10;;;21.00;61.70;;;;;;5015208;28;20226;-71
2022/05/03 12:33:54;;;;;;;2.40;2.10;;;21.10;61.90;;;;;;5014740;28;20635;-71
2022/05/03 12:36:40;;;;;;;3.45;2.63;;;21.00;61.60;;;;;;5016244;28;20615;-71
2022/05/03 12:39:15;;;;;;;4.25;2.50;;;21.10;61.70;;;;;;5015381;28;20223;-71
2022/05/03 12:41:43;;;;;;;3.20;2.90;;;21.00;61.00;;;;;;4998529;28;20207;-71
2022/05/03 12:44:13;;;;;;;3.00;2.70;;;20.90;60.70;;;;;;5031390;28;20211;-71
2022/05/03 12:46:42;;;;;;;4.80;2.80;;;20.90;61.00;;;;;;5014805;28;20291;-71
2022/05/03 12:49:11;;;;;;;3.78;2.70;;;20.90;61.20;;;;;;5014828;28;20223;-71
2022/05/03 12:51:46;;;;;;;4.32;2.80;;;20.80;60.20;;;;;;5016029;28;20187;-70
2022/05/03 12:54:13;;;;;;;3.67;2.85;;;20.70;59.70;;;;;;5014946;28;20164;-71
2022/05/03 12:59:26;;;;;;;3.03;2.83;;;20.60;59.40;;;;;;5015636;28;20176;-71
2022/05/03 13:01:55;;;;;;;2.80;2.60;;;20.70;59.10;;;;;;5014240;28;20204;-71
2022/05/03 13:04:22;;;;;;;5.38;2.70;;;20.60;59.10;;;;;;4998247;28;20191;-71
2022/05/03 13:06:49;;;;;;;4.93;2.92;;;20.70;59.70;;;;;;5014799;28;20234;-71
2022/05/03 13:09:14;;;;;;;2.55;2.35;;;20.70;59.60;;;;;;4998103;28;20298;-71
2022/05/03 13:11:41;;;;;;;3.83;2.97;;;20.60;59.00;;;;;;5014514;28;20267;-71
2022/05/03 13:14:11;;;;;;;3.75;2.58;;;20.60;58.80;;;;;;4997832;28;20203;-71
2022/05/03 13:16:38;;;;;;;3.10;2.30;;;20.60;59.00;;;;;;5015473;28;20165;-71
2022/05/03 13:19:04;;;;;;;3.45;2.90;;;20.60;59.50;;;;;;4997670;28;20195;-71
2022/05/03 13:21:35;;;;;;;3.30;3.00;;;20.60;59.20;;;;;;5015201;28;20179;-71
2022/05/03 13:24:05;;;;;;;3.78;3.00;;;20.60;59.00;;;;;;5013941;28;20690;-71
2022/05/03 13:26:32;;;;;;;3.20;3.00;;;20.60;58.40;;;;;;5014084;28;20188;-71
2022/05/03 13:29:01;;;;;;;3.67;2.90;;;20.60;58.40;;;;;;5014405;28;20175;-71
2022/05/03 13:31:28;;;;;;;3.38;3.13;;;20.60;59.00;;;;;;5013967;28;20327;-71
2022/05/03 13:33:54;;;;;;;3.55;3.28;;;20.70;59.40;;;;;;5014077;28;20184;-71
2022/05/03 13:41:49;;;;;;;3.58;3.05;;;20.70;59.60;;;;;;5013711;28;20346;-70
2022/05/03 13:44:15;;;;;;;3.50;3.20;;;20.80;59.70;;;;;;5030072;28;20251;-71
2022/05/03 13:46:40;;;;;;;3.55;2.97;;;20.80;59.80;;;;;;4997748;28;20257;-71
2022/05/03 13:49:06;;;;;;;6.47;3.45;;;20.80;59.70;;;;;;4997544;28;20176;-71
2022/05/03 13:51:33;;;;;;;5.75;2.97;;;20.80;59.90;;;;;;5013509;28;20627;-71
2022/05/03 13:53:59;;;;;;;5.15;3.15;;;20.90;60.00;;;;;;5029188;28;20216;-71
2022/05/03 13:56:25;;;;;;;5.53;3.13;;;20.90;60.90;;;;;;5012932;28;20184;-71
2022/05/03 13:58:51;;;;;;;6.15;2.78;;;21.00;60.00;;;;;;5012762;28;20217;-71
2022/05/03 14:01:17;;;;;;;4.05;3.03;;;21.00;60.10;;;;;;5012889;28;20191;-71
2022/05/03 14:03:43;;;;;;;4.65;2.85;;;21.00;60.00;;;;;;5012484;28;20200;-71